createdAt,value
2022-11-18T00:02:25.495Z,126.67
2022-11-18T00:07:29.412Z,133.60
2022-11-18T00:12:51.950Z,140.73
2022-11-18T00:17:55.731Z,153.93
2022-11-18T00:23:00.087Z,143.15
2022-11-18T00:28:05.723Z,145.90
2022-11-18T00:33:09.531Z,152.32
2022-11-18T00:38:13.321Z,151.52
2022-11-18T00:43:18.560Z,155.70
2022-11-18T00:48:22.726Z,164.90
2022-11-18T00:53:27.883Z,135.30
2022-11-18T00:58:33.118Z,139.63
2022-11-18T01:03:36.941Z,140.50
2022-11-18T01:08:40.791Z,146.95
2022-11-18T01:13:46.027Z,142.45
2022-11-18T01:18:49.829Z,128.53
2022-11-18T01:23:53.721Z,155.25
2022-11-18T01:28:59.152Z,157.00
2022-11-18T01:34:03.925Z,161.77
2022-11-18T01:39:07.755Z,158.55
2022-11-18T01:44:44.575Z,164.02
2022-11-18T01:49:49.933Z,171.13
2022-11-18T01:54:57.317Z,184.10
2022-11-18T02:00:03.967Z,183.40
2022-11-18T02:05:11.836Z,171.57
2022-11-18T02:10:21.747Z,158.65
2022-11-18T02:15:31.452Z,156.43
2022-11-18T02:20:38.838Z,175.55
2022-11-18T02:25:50.512Z,162.45
2022-11-18T02:31:00.948Z,153.52
2022-11-18T02:36:09.519Z,143.13
2022-11-18T02:41:17.513Z,143.38
2022-11-18T02:46:27.883Z,139.80
2022-11-18T02:51:33.384Z,146.95
2022-11-18T02:56:37.810Z,148.10
2022-11-18T03:01:43.059Z,141.20
2022-11-18T03:06:51.788Z,138.57
2022-11-18T03:12:01.129Z,147.50
2022-11-18T03:17:10.614Z,144.40
2022-11-18T03:22:19.307Z,140.70
2022-11-18T03:27:26.760Z,146.20
2022-11-18T03:32:34.762Z,139.10
2022-11-18T03:37:40.348Z,136.40
2022-11-18T03:42:46.642Z,132.23
2022-11-18T03:47:55.416Z,133.95
2022-11-18T03:53:00.282Z,131.00
2022-11-18T03:58:07.334Z,131.43
2022-11-18T04:03:12.932Z,127.20
2022-11-18T04:08:22.539Z,126.50
2022-11-18T04:13:30.990Z,124.85
2022-11-18T04:18:36.274Z,124.35
2022-11-18T04:23:40.097Z,121.77
2022-11-18T04:28:43.903Z,122.65
2022-11-18T04:33:49.083Z,117.85
2022-11-18T04:38:53.003Z,115.77
2022-11-18T04:43:56.798Z,114.95
2022-11-18T04:49:01.973Z,108.50
2022-11-18T04:54:06.163Z,104.90
2022-11-18T04:59:09.973Z,104.40
2022-11-18T05:04:16.756Z,102.40
2022-11-18T05:09:21.179Z,99.35
2022-11-18T05:14:26.740Z,96.00
2022-11-18T05:19:31.975Z,95.30
2022-11-18T05:24:35.786Z,98.97
2022-11-18T05:29:39.629Z,93.13
2022-11-18T05:34:45.008Z,92.40
2022-11-18T05:39:48.896Z,94.28
2022-11-18T05:44:57.837Z,90.53
2022-11-18T05:50:03.779Z,92.38
2022-11-18T05:55:08.638Z,95.30
2022-11-18T06:00:13.954Z,88.28
2022-11-18T06:05:20.306Z,74.00
2022-11-18T06:10:26.690Z,79.25
2022-11-18T06:15:32.999Z,78.82
2022-11-18T06:20:39.763Z,73.93
2022-11-18T06:25:43.999Z,70.35
2022-11-18T06:30:47.847Z,84.05
2022-11-18T06:35:53.120Z,9.43
2022-11-18T06:41:00.427Z,8.70
2022-11-18T06:46:22.902Z,8.63
2022-11-18T06:51:28.466Z,9.35
2022-11-18T06:56:32.455Z,9.45
2022-11-18T07:01:37.732Z,9.27
2022-11-18T07:06:42.968Z,6.57
2022-11-18T07:11:46.794Z,4.73
2022-11-18T07:16:50.626Z,5.43
2022-11-18T07:21:56.931Z,4.75
2022-11-18T07:27:02.063Z,20.27
2022-11-18T07:32:06.376Z,5.82
2022-11-18T07:37:11.635Z,6.97
2022-11-18T07:42:15.974Z,6.27
2022-11-18T07:47:19.865Z,9.30
2022-11-18T07:52:25.115Z,7.53
2022-11-18T07:57:28.947Z,8.80
2022-11-18T08:02:32.880Z,8.73
2022-11-18T08:07:38.137Z,7.00
2022-11-18T08:12:42.066Z,5.43
2022-11-18T08:17:45.976Z,7.68
2022-11-18T08:22:51.216Z,23.02
2022-11-18T08:27:55.122Z,28.20
2022-11-18T08:32:58.937Z,36.72
2022-11-18T08:38:04.215Z,18.30
2022-11-18T08:43:08.019Z,34.63
2022-11-18T08:48:12.729Z,42.28
2022-11-18T08:53:18.123Z,9.82
2022-11-18T08:58:21.940Z,22.48
2022-11-18T09:03:25.745Z,10.75
2022-11-18T09:08:30.943Z,31.83
2022-11-18T09:14:00.592Z,39.10
2022-11-18T09:19:04.899Z,36.78
2022-11-18T09:24:23.642Z,31.35
2022-11-18T09:29:27.517Z,31.40
2022-11-18T09:34:31.390Z,24.80
2022-11-18T09:39:37.710Z,23.10
2022-11-18T09:44:51.247Z,24.98
2022-11-18T09:49:56.324Z,20.90
2022-11-18T09:55:01.609Z,24.07
2022-11-18T10:00:11.527Z,24.70
2022-11-18T10:05:19.339Z,24.23
2022-11-18T10:10:28.612Z,20.45
2022-11-18T10:15:38.129Z,22.67
2022-11-18T10:20:50.759Z,21.02
2022-11-18T10:25:56.715Z,24.15
2022-11-18T10:31:11.644Z,26.42
2022-11-18T10:36:28.987Z,23.48
2022-11-18T10:41:48.986Z,23.40
2022-11-18T10:46:52.899Z,21.42
2022-11-18T10:52:10.359Z,24.27
2022-11-18T10:57:20.320Z,21.15
2022-11-18T11:02:31.124Z,26.33
2022-11-18T11:07:36.517Z,27.88
2022-11-18T11:12:47.303Z,24.35
2022-11-18T11:18:14.671Z,25.58
2022-11-18T11:23:23.439Z,20.63
2022-11-18T11:28:31.802Z,31.10
2022-11-18T11:33:39.010Z,34.92
2022-11-18T11:38:58.665Z,34.05
2022-11-18T11:44:23.331Z,24.35
2022-11-18T11:49:31.021Z,29.67
2022-11-18T11:54:44.998Z,26.52
2022-11-18T11:59:53.924Z,22.90
2022-11-18T12:05:01.020Z,25.00
2022-11-18T12:10:17.957Z,27.65
2022-11-18T12:15:32.679Z,21.83
2022-11-18T12:20:46.109Z,24.63
2022-11-18T12:26:01.945Z,26.77
2022-11-18T12:31:37.170Z,20.15
2022-11-18T12:42:13.991Z,26.02
2022-11-18T12:47:57.894Z,24.58
2022-11-18T12:53:01.697Z,27.00
2022-11-18T12:58:18.449Z,28.80
2022-11-18T13:03:29.473Z,21.30
2022-11-18T13:08:33.543Z,25.65
2022-11-18T13:13:38.019Z,24.38
2022-11-18T13:18:54.597Z,22.77
2022-11-18T13:24:01.396Z,21.73
2022-11-18T13:29:17.012Z,22.13
2022-11-18T13:34:24.127Z,23.23
2022-11-18T13:39:29.409Z,22.23
2022-11-18T13:44:34.617Z,24.60
2022-11-18T13:49:50.774Z,27.13
2022-11-18T13:54:56.106Z,25.90
2022-11-18T14:00:05.667Z,31.27
2022-11-18T14:05:21.695Z,27.67
2022-11-18T14:10:36.627Z,28.88
2022-11-18T14:15:44.226Z,26.92
2022-11-18T14:20:55.973Z,24.08
2022-11-18T14:26:01.412Z,34.08
2022-11-18T14:31:08.089Z,29.27
2022-11-18T14:36:16.104Z,30.92
2022-11-18T14:41:44.704Z,29.58
2022-11-18T14:46:52.378Z,31.25
2022-11-18T14:51:57.585Z,35.35
2022-11-18T14:57:03.048Z,32.60
2022-11-18T15:02:06.922Z,38.85
2022-11-18T15:07:18.494Z,43.22
2022-11-18T15:12:26.775Z,41.38
2022-11-18T15:17:30.940Z,45.58
2022-11-18T15:22:36.182Z,45.83
2022-11-18T15:27:40.143Z,46.57
2022-11-18T15:32:44.391Z,48.80
2022-11-18T15:37:49.768Z,43.92
2022-11-18T15:42:53.645Z,24.57
2022-11-18T15:47:57.697Z,44.40
2022-11-18T15:53:02.881Z,43.50
2022-11-18T15:58:06.725Z,46.57
2022-11-18T16:03:10.511Z,51.17
2022-11-18T16:08:15.677Z,50.53
2022-11-18T16:13:22.379Z,55.17
2022-11-18T16:18:26.206Z,49.30
2022-11-18T16:23:31.393Z,51.60
2022-11-18T16:28:35.182Z,55.13
2022-11-18T16:33:39.298Z,57.38
2022-11-18T16:38:44.491Z,57.05
2022-11-18T16:43:50.150Z,57.73
2022-11-18T16:48:53.991Z,60.75
2022-11-18T16:54:00.133Z,62.83
2022-11-18T16:59:06.100Z,65.25
2022-11-18T17:09:19.274Z,65.00
2022-11-18T17:14:23.478Z,59.92
2022-11-18T17:19:27.281Z,61.70
2022-11-18T17:24:32.787Z,61.50
2022-11-18T17:29:36.589Z,65.68
2022-11-18T17:34:40.394Z,67.43
2022-11-18T17:39:45.569Z,64.43
2022-11-18T17:44:49.385Z,66.17
2022-11-18T17:49:53.158Z,61.47
2022-11-18T17:54:58.338Z,63.58
2022-11-18T18:00:02.133Z,67.23
2022-11-18T18:05:11.285Z,65.30
2022-11-18T18:10:16.961Z,66.03
2022-11-18T18:15:20.814Z,66.20
2022-11-18T18:20:24.742Z,64.70
2022-11-18T18:25:30.480Z,64.90
2022-11-18T18:30:34.307Z,71.88
2022-11-18T18:35:41.392Z,69.40
2022-11-18T18:40:46.592Z,70.30
2022-11-18T18:46:07.822Z,69.37
2022-11-18T18:51:11.646Z,66.22
2022-11-18T18:56:16.848Z,68.75
2022-11-18T19:01:21.385Z,71.57
2022-11-18T19:06:50.575Z,71.13
2022-11-18T19:12:09.664Z,69.53
2022-11-18T19:17:13.978Z,66.70
2022-11-18T19:22:17.923Z,67.15
2022-11-18T19:27:23.388Z,66.60
2022-11-18T19:32:27.209Z,40.75
2022-11-18T19:37:32.102Z,68.13
2022-11-18T19:42:37.822Z,68.05
2022-11-18T19:47:41.642Z,73.78
2022-11-18T19:52:48.737Z,68.72
2022-11-18T19:57:53.933Z,73.15
2022-11-18T20:02:57.723Z,70.37
2022-11-18T20:08:01.537Z,74.50
2022-11-18T20:13:06.712Z,72.88
2022-11-18T20:18:10.683Z,71.57
2022-11-18T20:23:14.515Z,75.13
2022-11-18T20:28:19.761Z,71.63
2022-11-18T20:33:23.557Z,34.03
2022-11-18T20:38:27.345Z,73.78
2022-11-18T20:43:34.040Z,73.45
2022-11-18T20:48:38.614Z,75.70
2022-11-18T20:53:43.106Z,73.05
2022-11-18T20:58:48.446Z,74.88
2022-11-18T21:03:54.053Z,75.37
2022-11-18T21:09:00.886Z,73.93
2022-11-18T21:14:25.625Z,73.57
2022-11-18T21:19:30.129Z,72.25
2022-11-18T21:24:35.412Z,74.55
2022-11-18T21:29:41.565Z,76.80
2022-11-18T21:34:45.342Z,74.38
2022-11-18T21:39:49.131Z,76.25
2022-11-18T21:44:54.316Z,74.65
2022-11-18T21:49:58.078Z,74.80
2022-11-18T21:55:02.339Z,77.43
2022-11-18T22:00:09.171Z,75.85
2022-11-18T22:05:15.474Z,76.70
2022-11-18T22:10:19.676Z,77.88
2022-11-18T22:15:25.218Z,75.45
2022-11-18T22:20:36.727Z,76.90
2022-11-18T22:25:40.578Z,76.25
2022-11-18T22:30:45.745Z,76.75
2022-11-18T22:35:49.527Z,73.50
2022-11-18T22:40:53.351Z,77.70
2022-11-18T22:46:03.170Z,79.65
2022-11-18T22:51:07.766Z,90.15
2022-11-18T22:56:13.594Z,94.18
2022-11-18T23:01:20.678Z,93.55
2022-11-18T23:06:24.462Z,96.03
2022-11-18T23:11:46.736Z,98.63
2022-11-18T23:16:51.950Z,94.50
2022-11-18T23:21:55.729Z,98.30
2022-11-18T23:26:59.509Z,103.07
2022-11-18T23:32:05.070Z,106.45
2022-11-18T23:37:09.715Z,121.65
2022-11-18T23:42:13.546Z,136.77
2022-11-18T23:47:18.744Z,149.63
2022-11-18T23:52:22.521Z,164.57
2022-11-18T23:57:26.319Z,188.63
